createdAt,value
2022-11-05T00:02:02.154Z,4.60
2022-11-05T00:04:49.430Z,4.70
2022-11-05T00:07:38.091Z,5.40
2022-11-05T00:10:08.422Z,5.60
2022-11-05T00:12:54.433Z,5.23
2022-11-05T00:15:40.542Z,5.63
2022-11-05T00:18:09.425Z,5.30
2022-11-05T00:20:39.665Z,5.63
2022-11-05T00:23:25.963Z,6.27
2022-11-05T00:25:58.653Z,5.87
2022-11-05T00:28:27.727Z,6.50
2022-11-05T00:31:00.879Z,5.47
2022-11-05T00:33:30.202Z,6.50
2022-11-05T00:36:00.471Z,7.00
2022-11-05T00:38:29.256Z,7.07
2022-11-05T00:40:58.271Z,6.23
2022-11-05T00:43:40.575Z,5.83
2022-11-05T00:46:09.505Z,6.83
2022-11-05T00:49:01.075Z,6.47
2022-11-05T00:51:31.455Z,6.97
2022-11-05T00:54:00.008Z,6.20
2022-11-05T00:56:28.664Z,5.53
2022-11-05T00:58:57.640Z,6.00
2022-11-05T01:01:26.847Z,7.57
2022-11-05T01:03:56.208Z,7.07
2022-11-05T01:06:24.888Z,7.13
2022-11-05T01:08:57.830Z,7.03
2022-11-05T01:11:35.395Z,7.00
2022-11-05T01:14:05.255Z,6.87
2022-11-05T01:16:34.302Z,7.17
2022-11-05T01:19:03.399Z,7.87
2022-11-05T01:21:33.944Z,7.30
2022-11-05T01:24:04.889Z,7.97
2022-11-05T01:26:33.602Z,7.60
2022-11-05T01:29:02.443Z,7.73
2022-11-05T01:31:31.325Z,7.47
2022-11-05T01:34:01.954Z,7.20
2022-11-05T01:36:31.268Z,6.67
2022-11-05T01:39:00.233Z,6.50
2022-11-05T01:41:30.520Z,6.20
2022-11-05T01:44:00.613Z,7.13
2022-11-05T01:46:33.222Z,5.83
2022-11-05T01:49:10.019Z,6.50
2022-11-05T01:51:38.968Z,6.70
2022-11-05T01:54:10.018Z,6.50
2022-11-05T01:56:44.309Z,6.07
2022-11-05T01:59:15.342Z,5.80
2022-11-05T02:01:45.315Z,5.87
2022-11-05T02:04:16.939Z,6.03
2022-11-05T02:06:47.431Z,5.40
2022-11-05T02:09:20.058Z,6.00
2022-11-05T02:11:51.576Z,5.30
2022-11-05T02:14:21.869Z,5.53
2022-11-05T02:17:04.883Z,5.30
2022-11-05T02:20:07.287Z,5.00
2022-11-05T02:23:22.509Z,5.97
2022-11-05T02:26:45.534Z,5.70
2022-11-05T02:29:54.322Z,5.10
2022-11-05T02:32:33.498Z,4.63
2022-11-05T02:35:08.211Z,5.17
2022-11-05T02:37:41.083Z,5.77
2022-11-05T02:40:16.852Z,6.03
2022-11-05T02:42:48.780Z,6.00
2022-11-05T02:45:27.513Z,5.70
2022-11-05T02:48:04.995Z,6.73
2022-11-05T02:50:36.964Z,5.77
2022-11-05T02:53:10.695Z,7.17
2022-11-05T02:55:44.219Z,6.50
2022-11-05T02:58:13.241Z,6.43
2022-11-05T03:00:50.899Z,6.10
2022-11-05T03:03:33.350Z,5.77
2022-11-05T03:06:19.909Z,5.30
2022-11-05T03:09:00.506Z,6.70
2022-11-05T03:11:31.327Z,5.90
2022-11-05T03:14:03.752Z,5.40
2022-11-05T03:16:37.360Z,5.53
2022-11-05T03:19:12.046Z,5.53
2022-11-05T03:21:45.128Z,7.10
2022-11-05T03:24:18.593Z,6.03
2022-11-05T03:26:52.076Z,6.90
2022-11-05T03:29:24.424Z,6.67
2022-11-05T03:31:55.290Z,6.80
2022-11-05T03:34:29.471Z,5.43
2022-11-05T03:36:58.613Z,7.67
2022-11-05T03:39:30.999Z,7.90
2022-11-05T03:42:00.737Z,7.27
2022-11-05T03:44:32.423Z,7.13
2022-11-05T03:47:04.495Z,6.93
2022-11-05T03:49:37.683Z,6.77
2022-11-05T03:52:09.328Z,7.10
2022-11-05T03:54:37.739Z,6.27
2022-11-05T03:57:10.465Z,7.77
2022-11-05T03:59:44.183Z,6.90
2022-11-05T04:02:14.752Z,6.80
2022-11-05T04:04:46.411Z,6.77
2022-11-05T04:07:32.660Z,7.30
2022-11-05T04:10:19.125Z,7.43
2022-11-05T04:13:05.275Z,7.43
2022-11-05T04:15:54.308Z,7.10
2022-11-05T04:18:22.659Z,8.57
2022-11-05T04:21:10.136Z,9.20
2022-11-05T04:23:56.803Z,9.00
2022-11-05T04:26:25.738Z,10.37
2022-11-05T04:29:12.029Z,9.03
2022-11-05T04:31:40.909Z,8.27
2022-11-05T04:34:09.654Z,8.50
2022-11-05T04:36:39.559Z,8.10
2022-11-05T04:39:08.085Z,9.67
2022-11-05T04:41:36.527Z,8.20
2022-11-05T04:44:05.782Z,8.17
2022-11-05T04:46:34.703Z,9.37
2022-11-05T04:49:03.154Z,9.50
2022-11-05T04:51:31.688Z,9.40
2022-11-05T04:54:01.650Z,8.10
2022-11-05T04:56:30.219Z,8.07
2022-11-05T04:58:58.710Z,8.20
2022-11-05T05:01:27.192Z,8.40
2022-11-05T05:03:56.587Z,8.90
2022-11-05T05:06:25.342Z,8.10
2022-11-05T05:08:54.285Z,7.60
2022-11-05T05:11:24.235Z,7.60
2022-11-05T05:13:53.138Z,7.90
2022-11-05T05:16:22.917Z,7.53
2022-11-05T05:18:51.872Z,7.90
2022-11-05T05:21:39.298Z,6.67
2022-11-05T05:24:09.425Z,6.53
2022-11-05T05:26:41.373Z,7.50
2022-11-05T05:29:10.510Z,6.40
2022-11-05T05:31:39.359Z,6.93
2022-11-05T05:34:08.328Z,7.73
2022-11-05T05:36:37.221Z,6.30
2022-11-05T05:39:07.511Z,7.07
2022-11-05T05:41:35.968Z,6.77
2022-11-05T05:44:06.876Z,8.03
2022-11-05T05:46:35.848Z,7.17
2022-11-05T05:49:09.430Z,7.00
2022-11-05T05:51:40.852Z,6.87
2022-11-05T05:54:09.500Z,6.47
2022-11-05T05:56:38.080Z,6.20
2022-11-05T05:59:08.800Z,5.97
2022-11-05T06:01:37.669Z,6.53
2022-11-05T06:04:06.771Z,6.23
2022-11-05T06:06:35.310Z,6.27
2022-11-05T06:09:04.111Z,6.97
2022-11-05T06:11:32.894Z,6.43
2022-11-05T06:14:02.291Z,6.90
2022-11-05T06:16:35.865Z,6.50
2022-11-05T06:19:04.955Z,6.37
2022-11-05T06:21:34.300Z,7.50
2022-11-05T06:24:03.556Z,7.20
2022-11-05T06:26:32.139Z,6.50
2022-11-05T06:29:00.639Z,6.17
2022-11-05T06:31:29.204Z,6.47
2022-11-05T06:33:59.342Z,7.37
2022-11-05T06:36:27.943Z,6.57
2022-11-05T06:38:56.736Z,6.70
2022-11-05T06:41:25.418Z,7.13
2022-11-05T06:43:54.055Z,6.87
2022-11-05T06:46:23.103Z,6.90
2022-11-05T06:48:52.500Z,8.33
2022-11-05T06:51:22.816Z,6.97
2022-11-05T06:53:51.625Z,6.57
2022-11-05T06:56:20.268Z,6.87
2022-11-05T06:58:48.737Z,6.37
2022-11-05T07:01:17.746Z,5.93
2022-11-05T07:03:48.991Z,7.07
2022-11-05T07:06:17.682Z,6.47
2022-11-05T07:08:47.779Z,6.40
2022-11-05T07:11:16.481Z,5.60
2022-11-05T07:13:45.097Z,5.43
2022-11-05T07:16:13.756Z,6.23
2022-11-05T07:18:42.655Z,5.67
2022-11-05T07:21:11.224Z,5.10
2022-11-05T07:23:39.772Z,4.97
2022-11-05T07:26:09.665Z,6.27
2022-11-05T07:28:38.165Z,4.43
2022-11-05T07:31:07.073Z,5.30
2022-11-05T07:33:36.833Z,5.17
2022-11-05T07:36:05.994Z,4.57
2022-11-05T07:38:34.511Z,5.63
2022-11-05T07:41:03.410Z,3.83
2022-11-05T07:43:33.340Z,4.07
2022-11-05T07:46:01.990Z,4.80
2022-11-05T07:48:30.435Z,4.03
2022-11-05T07:50:59.259Z,3.93
2022-11-05T07:53:27.830Z,4.10
2022-11-05T07:55:57.299Z,4.50
2022-11-05T07:58:26.184Z,5.23
2022-11-05T08:00:56.310Z,3.83
2022-11-05T08:03:25.211Z,3.70
2022-11-05T08:05:53.894Z,3.23
2022-11-05T08:08:23.332Z,3.50
2022-11-05T08:10:51.760Z,3.60
2022-11-05T08:13:21.080Z,3.13
2022-11-05T08:15:49.600Z,3.97
2022-11-05T08:18:19.790Z,3.73
2022-11-05T08:20:49.209Z,3.27
2022-11-05T08:23:17.694Z,3.27
2022-11-05T08:25:46.616Z,3.50
2022-11-05T08:28:15.368Z,3.67
2022-11-05T08:30:45.191Z,6.33
2022-11-05T08:33:15.066Z,3.33
2022-11-05T08:35:45.657Z,3.20
2022-11-05T08:38:16.357Z,2.53
2022-11-05T08:40:46.725Z,3.13
2022-11-05T08:43:15.887Z,2.10
2022-11-05T08:45:44.681Z,2.80
2022-11-05T08:48:15.553Z,2.77
2022-11-05T08:50:46.219Z,2.97
2022-11-05T08:53:16.002Z,2.43
2022-11-05T08:55:47.748Z,2.50
2022-11-05T08:58:17.404Z,2.20
2022-11-05T09:00:47.595Z,2.17
2022-11-05T09:03:16.397Z,2.30
2022-11-05T09:05:47.091Z,2.70
2022-11-05T09:08:18.093Z,2.17
2022-11-05T09:10:47.609Z,2.93
2022-11-05T09:13:19.237Z,2.20
2022-11-05T09:15:49.295Z,1.97
2022-11-05T09:18:19.639Z,2.20
2022-11-05T09:20:49.976Z,2.27
2022-11-05T09:23:18.563Z,3.17
2022-11-05T09:25:47.664Z,2.50
2022-11-05T09:28:17.753Z,2.40
2022-11-05T09:30:47.671Z,2.10
2022-11-05T09:33:17.153Z,2.20
2022-11-05T09:35:46.044Z,1.90
2022-11-05T09:38:16.912Z,1.97
2022-11-05T09:40:53.743Z,2.03
2022-11-05T09:43:30.368Z,2.43
2022-11-05T09:46:01.508Z,2.27
2022-11-05T09:48:31.502Z,2.50
2022-11-05T09:51:00.209Z,2.20
2022-11-05T09:53:30.107Z,1.80
2022-11-05T09:56:00.561Z,2.30
2022-11-05T09:58:44.830Z,2.47
2022-11-05T10:01:17.511Z,2.93
2022-11-05T10:03:48.210Z,1.90
2022-11-05T10:06:21.566Z,2.10
2022-11-05T10:08:56.144Z,1.70
2022-11-05T10:11:29.712Z,2.23
2022-11-05T10:14:01.013Z,2.07
2022-11-05T10:16:32.063Z,2.33
2022-11-05T10:19:04.781Z,2.70
2022-11-05T10:22:04.461Z,2.00
2022-11-05T10:24:25.701Z,2.07
2022-11-05T10:26:56.231Z,1.60
2022-11-05T10:29:29.507Z,2.20
2022-11-05T10:31:59.128Z,1.73
2022-11-05T10:34:30.549Z,2.87
2022-11-05T10:36:59.380Z,2.20
2022-11-05T10:39:30.487Z,2.83
2022-11-05T10:42:29.846Z,1.77
2022-11-05T10:45:03.717Z,1.43
2022-11-05T10:47:50.516Z,1.50
2022-11-05T10:50:22.076Z,1.67
2022-11-05T10:52:58.872Z,1.83
2022-11-05T10:55:30.370Z,1.50
2022-11-05T10:58:10.446Z,1.67
2022-11-05T11:00:39.262Z,1.33
2022-11-05T11:03:35.442Z,1.60
2022-11-05T11:06:07.809Z,1.37
2022-11-05T11:08:37.735Z,1.27
2022-11-05T11:11:11.485Z,1.53
2022-11-05T11:13:54.790Z,1.50
2022-11-05T11:16:25.200Z,1.43
2022-11-05T11:18:59.498Z,1.53
2022-11-05T11:21:28.885Z,1.53
2022-11-05T11:23:59.010Z,1.70
2022-11-05T11:26:31.565Z,1.03
2022-11-05T11:29:02.100Z,1.60
2022-11-05T11:31:33.045Z,1.40
2022-11-05T11:34:04.535Z,1.87
2022-11-05T11:36:36.073Z,2.50
2022-11-05T11:39:06.783Z,3.03
2022-11-05T11:41:39.535Z,1.70
2022-11-05T11:44:13.472Z,1.20
2022-11-05T11:46:42.963Z,1.13
2022-11-05T11:49:32.097Z,1.47
2022-11-05T11:52:03.093Z,2.03
2022-11-05T11:54:33.987Z,1.33
2022-11-05T11:57:04.786Z,1.50
2022-11-05T12:00:02.375Z,1.37
2022-11-05T12:02:41.645Z,1.13
2022-11-05T12:05:23.545Z,1.30
2022-11-05T12:07:53.480Z,1.67
2022-11-05T12:10:36.243Z,1.00
2022-11-05T12:13:30.152Z,1.10
2022-11-05T12:16:01.029Z,1.30
2022-11-05T12:18:36.553Z,1.10
2022-11-05T12:21:08.192Z,1.47
2022-11-05T12:24:04.042Z,1.30
2022-11-05T12:26:42.071Z,1.40
2022-11-05T12:29:25.529Z,1.27
2022-11-05T12:32:04.416Z,1.10
2022-11-05T12:34:42.819Z,1.17
2022-11-05T12:37:25.621Z,1.70
2022-11-05T12:40:15.865Z,1.20
2022-11-05T12:42:54.062Z,1.53
2022-11-05T12:45:34.010Z,1.40
2022-11-05T12:48:13.435Z,1.10
2022-11-05T12:50:47.164Z,1.40
2022-11-05T12:53:41.591Z,1.33
2022-11-05T12:56:14.849Z,1.37
2022-11-05T12:58:45.965Z,1.50
2022-11-05T13:01:19.588Z,1.30
2022-11-05T13:03:52.985Z,1.20
2022-11-05T13:06:24.834Z,1.27
2022-11-05T13:08:58.616Z,1.33
2022-11-05T13:11:31.213Z,1.57
2022-11-05T13:14:05.988Z,1.37
2022-11-05T13:16:38.895Z,1.20
2022-11-05T13:19:16.841Z,1.30
2022-11-05T13:21:49.292Z,1.03
2022-11-05T13:24:20.282Z,1.30
2022-11-05T13:26:52.280Z,1.50
2022-11-05T13:29:26.790Z,1.80
2022-11-05T13:32:00.147Z,1.13
2022-11-05T13:34:33.456Z,1.13
2022-11-05T13:37:23.923Z,1.30
2022-11-05T13:39:55.922Z,1.23
2022-11-05T13:42:55.645Z,1.93
2022-11-05T13:45:52.191Z,1.20
2022-11-05T13:48:40.500Z,1.20
2022-11-05T13:51:49.522Z,1.40
2022-11-05T13:54:52.863Z,1.10
2022-11-05T13:57:41.135Z,1.40
2022-11-05T14:00:16.896Z,1.17
2022-11-05T14:02:48.566Z,1.50
2022-11-05T14:05:40.686Z,1.10
2022-11-05T14:08:12.165Z,1.63
2022-11-05T14:10:43.746Z,1.60
2022-11-05T14:13:25.829Z,1.37
2022-11-05T14:15:58.496Z,1.47
2022-11-05T14:18:40.021Z,1.30
2022-11-05T14:21:32.916Z,1.13
2022-11-05T14:24:04.309Z,1.57
2022-11-05T14:26:33.504Z,2.90
2022-11-05T14:29:26.560Z,1.70
2022-11-05T14:32:09.667Z,1.47
2022-11-05T14:34:47.399Z,1.60
2022-11-05T14:37:23.921Z,2.90
2022-11-05T14:39:53.749Z,1.60
2022-11-05T14:42:26.973Z,1.37
2022-11-05T14:45:02.839Z,1.20
2022-11-05T14:47:34.504Z,1.90
2022-11-05T14:50:09.440Z,4.63
2022-11-05T14:52:40.504Z,9.33
2022-11-05T14:55:26.771Z,3.30
2022-11-05T14:58:07.650Z,2.93
2022-11-05T15:00:46.345Z,13.43
2022-11-05T15:03:35.328Z,15.77
2022-11-05T15:06:20.376Z,7.10
2022-11-05T15:09:26.716Z,7.60
2022-11-05T15:12:09.263Z,12.73
2022-11-05T15:14:43.158Z,7.60
2022-11-05T15:17:19.618Z,7.20
2022-11-05T15:19:48.688Z,6.30
2022-11-05T15:22:30.745Z,7.20
2022-11-05T15:25:02.827Z,6.60
2022-11-05T15:27:51.819Z,9.20
2022-11-05T15:30:22.341Z,5.53
2022-11-05T15:32:51.039Z,2.50
2022-11-05T15:35:26.919Z,3.03
2022-11-05T15:38:02.031Z,2.57
2022-11-05T15:40:33.965Z,2.67
2022-11-05T15:43:20.964Z,2.37
2022-11-05T15:46:09.497Z,2.27
2022-11-05T15:48:38.358Z,2.20
2022-11-05T15:51:07.374Z,2.63
2022-11-05T15:56:32.006Z,2.40
2022-11-05T15:59:02.997Z,2.63
2022-11-05T16:01:33.010Z,2.10
2022-11-05T16:04:09.659Z,4.67
2022-11-05T16:06:40.681Z,6.27
2022-11-05T16:09:19.282Z,4.10
2022-11-05T16:11:49.431Z,5.13
2022-11-05T16:14:19.284Z,4.87
2022-11-05T16:16:48.376Z,4.37
2022-11-05T16:19:39.941Z,4.87
2022-11-05T16:22:09.794Z,4.20
2022-11-05T16:24:38.677Z,4.10
2022-11-05T16:27:18.978Z,4.00
2022-11-05T16:29:52.634Z,3.23
2022-11-05T16:32:29.799Z,3.60
2022-11-05T16:35:01.223Z,5.60
2022-11-05T16:37:33.430Z,4.20
2022-11-05T16:40:03.777Z,5.83
2022-11-05T16:42:41.686Z,4.90
2022-11-05T16:45:13.819Z,3.57
2022-11-05T16:47:43.399Z,5.83
2022-11-05T16:50:18.049Z,3.20
2022-11-05T16:52:48.135Z,3.50
2022-11-05T16:55:17.400Z,3.40
2022-11-05T16:57:49.213Z,3.93
2022-11-05T17:00:20.045Z,4.50
2022-11-05T17:02:49.126Z,8.00
2022-11-05T17:05:20.537Z,4.97
2022-11-05T17:07:52.598Z,4.60
2022-11-05T17:10:21.629Z,7.10
2022-11-05T17:12:51.764Z,7.27
2022-11-05T17:15:23.064Z,10.20
2022-11-05T17:17:52.519Z,9.50
2022-11-05T17:20:38.295Z,9.20
2022-11-05T17:23:10.010Z,12.47
2022-11-05T17:25:39.212Z,9.00
2022-11-05T17:28:10.548Z,6.47
2022-11-05T17:30:41.747Z,8.90
2022-11-05T17:33:12.349Z,8.10
2022-11-05T17:35:42.056Z,8.43
2022-11-05T17:38:11.077Z,9.43
2022-11-05T17:40:39.748Z,8.30
2022-11-05T17:43:10.381Z,8.13
2022-11-05T17:45:44.216Z,6.90
2022-11-05T17:48:13.322Z,6.43
2022-11-05T17:50:43.074Z,7.30
2022-11-05T17:53:13.122Z,6.27
2022-11-05T17:55:42.639Z,8.57
2022-11-05T17:58:12.742Z,6.87
2022-11-05T18:00:42.692Z,7.07
2022-11-05T18:03:13.772Z,6.00
2022-11-05T18:05:43.227Z,8.70
2022-11-05T18:08:12.775Z,6.20
2022-11-05T18:10:42.976Z,8.97
2022-11-05T18:13:13.956Z,10.60
2022-11-05T18:15:43.637Z,9.20
2022-11-05T18:18:12.296Z,14.67
2022-11-05T18:20:40.925Z,9.97
2022-11-05T18:23:10.366Z,7.80
2022-11-05T18:25:41.187Z,5.93
2022-11-05T18:28:10.441Z,7.77
2022-11-05T18:30:41.220Z,25.07
2022-11-05T18:33:10.111Z,9.80
2022-11-05T18:35:42.474Z,11.67
2022-11-05T18:38:11.134Z,6.70
2022-11-05T18:40:39.882Z,6.57
2022-11-05T18:43:08.658Z,5.10
2022-11-05T18:45:37.398Z,9.83
2022-11-05T18:48:08.252Z,6.10
2022-11-05T18:50:36.654Z,11.10
2022-11-05T18:53:05.395Z,5.90
2022-11-05T18:55:33.636Z,5.50
2022-11-05T18:58:02.417Z,5.53
2022-11-05T19:00:32.218Z,14.90
2022-11-05T19:03:00.967Z,5.53
2022-11-05T19:05:31.763Z,5.47
2022-11-05T19:08:00.345Z,9.17
2022-11-05T19:10:29.216Z,8.47
2022-11-05T19:12:57.844Z,7.67
2022-11-05T19:15:26.664Z,8.97
2022-11-05T19:17:55.479Z,8.63
2022-11-05T19:20:24.010Z,9.73
2022-11-05T19:22:54.237Z,12.67
2022-11-05T19:25:22.715Z,19.10
2022-11-05T19:27:51.323Z,14.53
2022-11-05T19:30:20.021Z,12.00
2022-11-05T19:32:48.432Z,9.53
2022-11-05T19:35:17.374Z,10.63
2022-11-05T19:37:46.128Z,11.57
2022-11-05T19:40:16.322Z,11.33
2022-11-05T19:42:45.344Z,8.03
2022-11-05T19:45:42.854Z,11.03
2022-11-05T19:48:02.640Z,9.87
2022-11-05T19:50:31.651Z,9.57
2022-11-05T19:53:00.355Z,9.90
2022-11-05T19:55:30.582Z,7.90
2022-11-05T19:57:59.285Z,8.60
2022-11-05T20:00:27.734Z,7.77
2022-11-05T20:02:56.450Z,11.70
2022-11-05T20:05:25.374Z,9.97
2022-11-05T20:07:53.746Z,9.37
2022-11-05T20:10:22.695Z,9.73
2022-11-05T20:12:53.174Z,9.13
2022-11-05T20:15:22.327Z,9.87
2022-11-05T20:17:52.180Z,10.00
2022-11-05T20:20:21.390Z,12.17
2022-11-05T20:22:53.263Z,12.20
2022-11-05T20:25:23.124Z,15.60
2022-11-05T20:27:53.805Z,8.93
2022-11-05T20:30:23.859Z,12.40
2022-11-05T20:32:55.215Z,13.90
2022-11-05T20:35:24.725Z,10.27
2022-11-05T20:37:54.399Z,10.30
2022-11-05T20:40:23.764Z,10.00
2022-11-05T20:42:53.755Z,11.27
2022-11-05T20:45:23.192Z,11.63
2022-11-05T20:47:52.426Z,11.37
2022-11-05T20:50:21.017Z,10.47
2022-11-05T20:52:50.398Z,14.30
2022-11-05T20:55:19.110Z,12.77
2022-11-05T20:57:48.130Z,12.07
2022-11-05T21:00:19.339Z,10.83
2022-11-05T21:02:48.359Z,13.97
2022-11-05T21:05:16.917Z,17.07
2022-11-05T21:07:46.023Z,18.40
2022-11-05T21:10:14.844Z,20.40
2022-11-05T21:12:45.040Z,63.27
2022-11-05T21:15:13.733Z,34.07
2022-11-05T21:17:45.080Z,91.67
2022-11-05T21:20:13.649Z,75.87
2022-11-05T21:22:43.478Z,40.10
2022-11-05T21:25:14.193Z,95.40
2022-11-05T21:27:43.845Z,26.57
2022-11-05T21:30:13.650Z,29.37
2022-11-05T21:32:43.740Z,48.73
2022-11-05T21:35:12.410Z,16.30
2022-11-05T21:37:40.943Z,24.73
2022-11-05T21:40:10.816Z,15.10
2022-11-05T21:42:39.422Z,21.10
2022-11-05T21:45:08.841Z,18.50
2022-11-05T21:47:37.266Z,15.00
2022-11-05T21:50:09.090Z,18.33
2022-11-05T21:52:54.904Z,14.57
2022-11-05T21:55:43.958Z,15.33
2022-11-05T21:58:32.780Z,13.03
2022-11-05T22:01:02.327Z,15.23
2022-11-05T22:03:31.743Z,12.43
2022-11-05T22:06:01.834Z,13.67
2022-11-05T22:08:30.173Z,19.47
2022-11-05T22:10:59.038Z,16.50
2022-11-05T22:13:28.397Z,15.97
2022-11-05T22:15:57.259Z,14.03
2022-11-05T22:18:25.909Z,15.00
2022-11-05T22:20:54.779Z,12.33
2022-11-05T22:23:24.728Z,14.30
2022-11-05T22:26:00.324Z,14.13
2022-11-05T22:28:29.063Z,16.00
2022-11-05T22:30:57.861Z,21.07
2022-11-05T22:33:26.223Z,14.07
2022-11-05T22:35:54.820Z,120.03
2022-11-05T22:38:25.605Z,69.47
2022-11-05T22:40:54.074Z,13.00
2022-11-05T22:43:22.739Z,11.00
2022-11-05T22:45:51.955Z,19.10
2022-11-05T22:48:20.535Z,15.77
2022-11-05T22:50:49.003Z,18.77
2022-11-05T22:53:18.050Z,17.80
2022-11-05T22:55:47.999Z,12.00
2022-11-05T22:58:16.700Z,10.83
2022-11-05T23:00:45.142Z,11.87
2022-11-05T23:03:14.155Z,15.00
2022-11-05T23:05:43.326Z,35.07
2022-11-05T23:08:29.212Z,24.97
2022-11-05T23:11:16.712Z,10.20
2022-11-05T23:13:45.206Z,11.03
2022-11-05T23:16:31.237Z,10.47
2022-11-05T23:19:17.318Z,10.33
2022-11-05T23:22:03.734Z,10.40
2022-11-05T23:24:32.369Z,10.77
2022-11-05T23:27:02.291Z,11.77
2022-11-05T23:29:31.582Z,11.00
2022-11-05T23:32:17.324Z,11.30
2022-11-05T23:34:45.919Z,10.23
2022-11-05T23:37:32.091Z,10.47
2022-11-05T23:40:00.887Z,11.30
2022-11-05T23:42:48.316Z,10.27
2022-11-05T23:45:34.557Z,10.13
2022-11-05T23:48:20.230Z,10.53
2022-11-05T23:50:51.380Z,10.20
2022-11-05T23:53:20.749Z,10.63
2022-11-05T23:55:49.941Z,11.57
2022-11-05T23:58:20.037Z,11.57
